UAL788 KEWR-KORD
Flight info
| Callsign | UAL788 |
|---|---|
| Flight time | 1h 46m |
| Altitude | 40000 |
| Route | COATE Q436 KAYYS WYNDE3 |
| Aircraft | B772/H-SDE2E3FGHIJ5LORVWXY/LB1D1 |
Departure
| Time | 2026-04-26 20:18 |
|---|---|
| Airport | Newark Liberty International Airport (KEWR) |
Arrival
| Time | 2026-04-26 22:05 |
|---|---|
| Airport | Chicago O'Hare International Airport (KORD) |
| Time | Latitude | Longitude | Altitude | Speed | Heading |
|---|---|---|---|---|---|
| 2026-04-26 20:03 | 40.68990 | -74.17458 | 27 ft | 0 kts | 286° |
| 2026-04-26 20:09 | 40.68987 | -74.17439 | 27 ft | 4 kts | 283° |
| 2026-04-26 20:09 | 40.68982 | -74.17416 | 25 ft | 4 kts | 261° |
| 2026-04-26 20:10 | 40.68990 | -74.17397 | 25 ft | 4 kts | 212° |
| 2026-04-26 20:10 | 40.69013 | -74.17380 | 25 ft | 4 kts | 208° |
| 2026-04-26 20:10 | 40.69036 | -74.17367 | 25 ft | 4 kts | 183° |
| 2026-04-26 20:10 | 40.69049 | -74.17367 | 25 ft | 4 kts | 126° |
| 2026-04-26 20:11 | 40.69060 | -74.17394 | 25 ft | 4 kts | 116° |
| 2026-04-26 20:11 | 40.69065 | -74.17407 | 24 ft | 0 kts | 116° |
| 2026-04-26 20:14 | 40.69044 | -74.17352 | 26 ft | 17 kts | 117° |
| 2026-04-26 20:14 | 40.68958 | -74.17323 | 27 ft | 13 kts | 200° |
| 2026-04-26 20:14 | 40.68860 | -74.17279 | 27 ft | 17 kts | 180° |
| 2026-04-26 20:15 | 40.68712 | -74.17358 | 28 ft | 24 kts | 206° |
| 2026-04-26 20:15 | 40.68559 | -74.17457 | 27 ft | 24 kts | 206° |
| 2026-04-26 20:15 | 40.68407 | -74.17558 | 27 ft | 24 kts | 207° |
| 2026-04-26 20:15 | 40.68253 | -74.17654 | 26 ft | 24 kts | 204° |
| 2026-04-26 20:16 | 40.68099 | -74.17749 | 26 ft | 24 kts | 206° |
| 2026-04-26 20:16 | 40.67945 | -74.17845 | 27 ft | 24 kts | 205° |
| 2026-04-26 20:16 | 40.67800 | -74.17940 | 27 ft | 18 kts | 207° |
| 2026-04-26 20:16 | 40.67701 | -74.18003 | 27 ft | 15 kts | 205° |
| 2026-04-26 20:17 | 40.67616 | -74.18040 | 27 ft | 11 kts | 175° |
| 2026-04-26 20:17 | 40.67568 | -74.17963 | 27 ft | 14 kts | 86° |
| 2026-04-26 20:17 | 40.67640 | -74.17883 | 26 ft | 22 kts | 26° |
| 2026-04-26 20:17 | 40.67755 | -74.17809 | 30 ft | 42 kts | 26° |
| 2026-04-26 20:18 | 40.68561 | -74.17291 | 206 ft | 136 kts | 29° |
| 2026-04-26 20:18 | 40.69466 | -74.16742 | 1100 ft | 150 kts | 26° |
| 2026-04-26 20:18 | 40.70470 | -74.16299 | 2128 ft | 167 kts | 12° |
| 2026-04-26 20:18 | 40.71699 | -74.16708 | 2528 ft | 205 kts | 327° |
| 2026-04-26 20:19 | 40.72819 | -74.18047 | 3138 ft | 232 kts | 319° |
| 2026-04-26 20:19 | 40.74036 | -74.19579 | 4049 ft | 251 kts | 319° |
| 2026-04-26 20:19 | 40.75325 | -74.21211 | 5229 ft | 261 kts | 320° |
| 2026-04-26 20:19 | 40.76643 | -74.22882 | 6583 ft | 265 kts | 319° |
| 2026-04-26 20:20 | 40.77978 | -74.24572 | 7921 ft | 267 kts | 319° |
| 2026-04-26 20:20 | 40.79323 | -74.26270 | 9266 ft | 269 kts | 319° |
| 2026-04-26 20:20 | 40.80691 | -74.27995 | 10491 ft | 276 kts | 318° |
| 2026-04-26 20:20 | 40.82145 | -74.29819 | 11117 ft | 303 kts | 318° |
| 2026-04-26 20:21 | 40.83724 | -74.31801 | 11924 ft | 319 kts | 318° |
| 2026-04-26 20:21 | 40.85340 | -74.33833 | 13212 ft | 322 kts | 317° |
| 2026-04-26 20:21 | 40.86965 | -74.35876 | 14529 ft | 323 kts | 317° |
| 2026-04-26 20:21 | 40.88602 | -74.37934 | 15655 ft | 327 kts | 317° |
| 2026-04-26 20:22 | 40.90265 | -74.40025 | 16739 ft | 333 kts | 318° |
| 2026-04-26 20:22 | 40.91955 | -74.42150 | 17846 ft | 338 kts | 318° |
| 2026-04-26 20:22 | 40.93669 | -74.44306 | 18918 ft | 342 kts | 318° |
| 2026-04-26 20:22 | 40.95399 | -74.46483 | 19914 ft | 345 kts | 318° |
| 2026-04-26 20:23 | 40.97141 | -74.48677 | 20892 ft | 348 kts | 318° |
| 2026-04-26 20:23 | 40.98906 | -74.50903 | 21853 ft | 352 kts | 317° |
| 2026-04-26 20:23 | 41.00690 | -74.53153 | 22771 ft | 357 kts | 317° |
| 2026-04-26 20:23 | 41.02501 | -74.55441 | 23771 ft | 361 kts | 317° |
| 2026-04-26 20:24 | 41.04323 | -74.57743 | 24596 ft | 365 kts | 317° |
| 2026-04-26 20:24 | 41.06171 | -74.60081 | 25415 ft | 370 kts | 317° |
| 2026-04-26 20:24 | 41.08044 | -74.62451 | 26199 ft | 375 kts | 317° |
| 2026-04-26 20:24 | 41.09946 | -74.64859 | 26959 ft | 381 kts | 317° |
| 2026-04-26 20:25 | 41.11848 | -74.67335 | 27708 ft | 386 kts | 314° |
| 2026-04-26 20:25 | 41.12429 | -74.68194 | 27955 ft | 387 kts | 312° |
| 2026-04-26 20:25 | 41.15171 | -74.73019 | 29169 ft | 396 kts | 304° |
| 2026-04-26 20:25 | 41.16588 | -74.76181 | 29876 ft | 400 kts | 302° |
| 2026-04-26 20:26 | 41.17965 | -74.79357 | 30473 ft | 405 kts | 301° |
| 2026-04-26 20:26 | 41.19369 | -74.82622 | 30982 ft | 410 kts | 302° |
| 2026-04-26 20:26 | 41.20792 | -74.85932 | 31454 ft | 415 kts | 302° |
| 2026-04-26 20:26 | 41.21763 | -74.88186 | 31760 ft | 419 kts | 302° |
| 2026-04-26 20:27 | 41.23221 | -74.91564 | 32201 ft | 423 kts | 302° |
| 2026-04-26 20:27 | 41.25177 | -74.96087 | 32797 ft | 429 kts | 302° |
| 2026-04-26 20:27 | 41.26669 | -74.99535 | 33238 ft | 432 kts | 302° |
| 2026-04-26 20:27 | 41.28173 | -75.03013 | 33643 ft | 436 kts | 302° |
| 2026-04-26 20:28 | 41.29691 | -75.06525 | 34012 ft | 440 kts | 302° |
| 2026-04-26 20:28 | 41.30720 | -75.08910 | 34269 ft | 441 kts | 302° |
| 2026-04-26 20:28 | 41.32247 | -75.12451 | 34684 ft | 442 kts | 301° |
| 2026-04-26 20:28 | 41.33773 | -75.15997 | 35166 ft | 440 kts | 301° |
| 2026-04-26 20:29 | 41.35292 | -75.19529 | 35642 ft | 439 kts | 301° |
| 2026-04-26 20:29 | 41.36808 | -75.23058 | 36082 ft | 439 kts | 300° |
| 2026-04-26 20:29 | 41.38325 | -75.26592 | 36521 ft | 439 kts | 300° |
| 2026-04-26 20:29 | 41.39838 | -75.30120 | 36955 ft | 439 kts | 300° |
| 2026-04-26 20:30 | 41.41354 | -75.33662 | 37348 ft | 440 kts | 299° |
| 2026-04-26 20:30 | 41.42848 | -75.37157 | 37747 ft | 440 kts | 299° |
| 2026-04-26 20:30 | 41.44364 | -75.40704 | 38146 ft | 440 kts | 298° |
| 2026-04-26 20:30 | 41.45878 | -75.44253 | 38547 ft | 441 kts | 298° |
| 2026-04-26 20:31 | 41.47354 | -75.47826 | 38902 ft | 441 kts | 296° |
| 2026-04-26 20:31 | 41.48610 | -75.51558 | 39178 ft | 441 kts | 290° |
| 2026-04-26 20:31 | 41.49707 | -75.55378 | 39414 ft | 443 kts | 290° |
| 2026-04-26 20:31 | 41.50791 | -75.59227 | 39675 ft | 443 kts | 290° |
| 2026-04-26 20:32 | 41.51878 | -75.63082 | 39946 ft | 444 kts | 290° |
| 2026-04-26 20:32 | 41.52975 | -75.66952 | 40075 ft | 448 kts | 290° |
| 2026-04-26 20:32 | 41.54085 | -75.70842 | 40133 ft | 448 kts | 290° |
| 2026-04-26 20:33 | 41.56317 | -75.78641 | 40153 ft | 451 kts | 290° |
| 2026-04-26 20:33 | 41.58555 | -75.86488 | 40168 ft | 453 kts | 290° |
| 2026-04-26 20:34 | 41.60783 | -75.94375 | 40170 ft | 454 kts | 290° |
| 2026-04-26 20:34 | 41.63008 | -76.02296 | 40169 ft | 455 kts | 290° |
| 2026-04-26 20:35 | 41.65228 | -76.10219 | 40178 ft | 455 kts | 290° |
| 2026-04-26 20:35 | 41.67445 | -76.18148 | 40182 ft | 454 kts | 290° |
| 2026-04-26 20:36 | 41.69657 | -76.26059 | 40182 ft | 453 kts | 290° |
| 2026-04-26 20:36 | 41.71881 | -76.33942 | 40188 ft | 453 kts | 291° |
| 2026-04-26 20:37 | 41.74100 | -76.41830 | 40187 ft | 453 kts | 290° |
| 2026-04-26 20:37 | 41.76311 | -76.49724 | 40192 ft | 453 kts | 290° |
| 2026-04-26 20:38 | 41.78510 | -76.57626 | 40196 ft | 453 kts | 290° |
| 2026-04-26 20:38 | 41.80696 | -76.65551 | 40192 ft | 454 kts | 290° |
| 2026-04-26 20:39 | 41.82880 | -76.73490 | 40191 ft | 454 kts | 290° |
| 2026-04-26 20:39 | 41.85060 | -76.81437 | 40186 ft | 455 kts | 290° |
| 2026-04-26 20:40 | 41.87240 | -76.89406 | 40190 ft | 455 kts | 290° |
| 2026-04-26 20:40 | 41.89415 | -76.97396 | 40185 ft | 456 kts | 290° |
| 2026-04-26 20:41 | 41.91576 | -77.05398 | 40192 ft | 456 kts | 290° |
| 2026-04-26 20:41 | 41.93716 | -77.13358 | 40195 ft | 457 kts | 290° |
| 2026-04-26 20:42 | 41.95870 | -77.21388 | 40204 ft | 457 kts | 290° |
| 2026-04-26 20:42 | 41.98017 | -77.29419 | 40204 ft | 457 kts | 290° |
| 2026-04-26 20:43 | 42.00162 | -77.37464 | 40210 ft | 457 kts | 290° |
| 2026-04-26 20:43 | 42.02318 | -77.45514 | 40208 ft | 458 kts | 291° |
| 2026-04-26 20:44 | 42.04513 | -77.53554 | 40209 ft | 458 kts | 291° |
| 2026-04-26 20:44 | 42.06706 | -77.61596 | 40205 ft | 458 kts | 291° |
| 2026-04-26 20:45 | 42.08889 | -77.69651 | 40202 ft | 458 kts | 291° |
| 2026-04-26 20:45 | 42.11062 | -77.77710 | 40197 ft | 458 kts | 291° |
| 2026-04-26 20:46 | 42.13232 | -77.85787 | 40194 ft | 458 kts | 291° |
| 2026-04-26 20:46 | 42.15396 | -77.93867 | 40187 ft | 458 kts | 291° |
| 2026-04-26 20:47 | 42.17553 | -78.01946 | 40195 ft | 458 kts | 291° |
| 2026-04-26 20:47 | 42.19706 | -78.10039 | 40199 ft | 458 kts | 291° |
| 2026-04-26 20:48 | 42.21854 | -78.18136 | 40186 ft | 459 kts | 291° |
| 2026-04-26 20:48 | 42.23998 | -78.26247 | 40186 ft | 459 kts | 291° |
| 2026-04-26 20:49 | 42.26080 | -78.34390 | 40182 ft | 459 kts | 290° |
| 2026-04-26 20:49 | 42.28093 | -78.42564 | 40183 ft | 459 kts | 290° |
| 2026-04-26 20:50 | 42.30104 | -78.50730 | 40183 ft | 458 kts | 290° |
| 2026-04-26 20:50 | 42.32118 | -78.58894 | 40189 ft | 458 kts | 290° |
| 2026-04-26 20:51 | 42.34126 | -78.67053 | 40192 ft | 457 kts | 290° |
| 2026-04-26 20:51 | 42.36123 | -78.75202 | 40193 ft | 457 kts | 290° |
| 2026-04-26 20:52 | 42.38114 | -78.83345 | 40195 ft | 456 kts | 290° |
| 2026-04-26 20:52 | 42.39872 | -78.91519 | 40194 ft | 457 kts | 284° |
| 2026-04-26 20:53 | 42.40674 | -79.00048 | 40191 ft | 458 kts | 277° |
| 2026-04-26 20:53 | 42.41193 | -79.08624 | 40196 ft | 456 kts | 277° |
| 2026-04-26 20:54 | 42.41721 | -79.17226 | 40194 ft | 455 kts | 277° |
| 2026-04-26 20:54 | 42.42258 | -79.25706 | 40194 ft | 454 kts | 277° |
| 2026-04-26 20:55 | 42.42801 | -79.34217 | 40190 ft | 454 kts | 277° |
| 2026-04-26 20:55 | 42.43335 | -79.42710 | 40189 ft | 453 kts | 277° |
| 2026-04-26 20:56 | 42.43862 | -79.51195 | 40204 ft | 451 kts | 277° |
| 2026-04-26 20:56 | 42.44380 | -79.59653 | 40201 ft | 450 kts | 277° |
| 2026-04-26 20:57 | 42.44891 | -79.68091 | 40212 ft | 449 kts | 277° |
| 2026-04-26 20:57 | 42.45395 | -79.76517 | 40218 ft | 449 kts | 277° |
| 2026-04-26 20:58 | 42.45893 | -79.84936 | 40218 ft | 448 kts | 277° |
| 2026-04-26 20:58 | 42.46384 | -79.93344 | 40219 ft | 448 kts | 277° |
| 2026-04-26 20:59 | 42.46867 | -80.01689 | 40217 ft | 447 kts | 277° |
| 2026-04-26 20:59 | 42.47346 | -80.10083 | 40220 ft | 447 kts | 277° |
| 2026-04-26 21:00 | 42.47819 | -80.18479 | 40219 ft | 447 kts | 277° |
| 2026-04-26 21:00 | 42.48287 | -80.26873 | 40220 ft | 447 kts | 277° |
| 2026-04-26 21:01 | 42.48747 | -80.35262 | 40217 ft | 446 kts | 277° |
| 2026-04-26 21:01 | 42.49201 | -80.43648 | 40211 ft | 446 kts | 277° |
| 2026-04-26 21:02 | 42.49649 | -80.52035 | 40210 ft | 446 kts | 277° |
| 2026-04-26 21:02 | 42.50092 | -80.60426 | 40213 ft | 446 kts | 277° |
| 2026-04-26 21:03 | 42.50527 | -80.68816 | 40210 ft | 446 kts | 276° |
| 2026-04-26 21:03 | 42.50834 | -80.77217 | 40206 ft | 446 kts | 275° |
| 2026-04-26 21:04 | 42.51077 | -80.85625 | 40211 ft | 446 kts | 275° |
| 2026-04-26 21:04 | 42.51328 | -80.94024 | 40215 ft | 446 kts | 275° |
| 2026-04-26 21:05 | 42.51584 | -81.02375 | 40214 ft | 446 kts | 275° |
| 2026-04-26 21:05 | 42.51838 | -81.10828 | 40217 ft | 446 kts | 275° |
| 2026-04-26 21:06 | 42.52085 | -81.19225 | 40217 ft | 446 kts | 275° |
| 2026-04-26 21:06 | 42.52387 | -81.27614 | 40226 ft | 444 kts | 278° |
| 2026-04-26 21:07 | 42.53261 | -81.35680 | 40214 ft | 442 kts | 281° |
| 2026-04-26 21:07 | 42.54236 | -81.43915 | 40218 ft | 443 kts | 281° |
| 2026-04-26 21:08 | 42.55184 | -81.52116 | 40222 ft | 443 kts | 281° |
| 2026-04-26 21:08 | 42.56119 | -81.60387 | 40224 ft | 444 kts | 281° |
| 2026-04-26 21:09 | 42.57043 | -81.68661 | 40222 ft | 444 kts | 281° |
| 2026-04-26 21:09 | 42.57961 | -81.76946 | 40221 ft | 444 kts | 281° |
| 2026-04-26 21:10 | 42.58874 | -81.85238 | 40217 ft | 444 kts | 281° |
| 2026-04-26 21:10 | 42.59780 | -81.93517 | 40210 ft | 444 kts | 281° |
| 2026-04-26 21:11 | 42.60682 | -82.01809 | 40209 ft | 444 kts | 281° |
| 2026-04-26 21:11 | 42.61577 | -82.10100 | 40204 ft | 444 kts | 280° |
| 2026-04-26 21:12 | 42.62466 | -82.18398 | 40207 ft | 444 kts | 280° |
| 2026-04-26 21:12 | 42.63349 | -82.26689 | 40202 ft | 444 kts | 280° |
| 2026-04-26 21:13 | 42.64226 | -82.34988 | 40203 ft | 444 kts | 280° |
| 2026-04-26 21:13 | 42.65098 | -82.43291 | 40202 ft | 444 kts | 280° |
| 2026-04-26 21:14 | 42.65965 | -82.51605 | 40188 ft | 444 kts | 280° |
| 2026-04-26 21:14 | 42.66837 | -82.59910 | 40182 ft | 444 kts | 280° |
| 2026-04-26 21:15 | 42.67561 | -82.66821 | 40175 ft | 444 kts | 280° |
| 2026-04-26 21:15 | 42.68425 | -82.75124 | 40175 ft | 444 kts | 280° |
| 2026-04-26 21:16 | 42.69266 | -82.83434 | 40174 ft | 444 kts | 279° |
| 2026-04-26 21:16 | 42.70093 | -82.91748 | 40176 ft | 443 kts | 279° |
| 2026-04-26 21:17 | 42.70918 | -83.00046 | 40177 ft | 443 kts | 279° |
| 2026-04-26 21:17 | 42.71810 | -83.08334 | 40197 ft | 442 kts | 281° |
| 2026-04-26 21:18 | 42.72794 | -83.16578 | 40198 ft | 442 kts | 281° |
| 2026-04-26 21:18 | 42.73764 | -83.24766 | 40195 ft | 441 kts | 281° |
| 2026-04-26 21:19 | 42.74718 | -83.33001 | 40192 ft | 441 kts | 281° |
| 2026-04-26 21:19 | 42.75660 | -83.41235 | 40196 ft | 440 kts | 281° |
| 2026-04-26 21:20 | 42.76594 | -83.49460 | 40192 ft | 440 kts | 280° |
| 2026-04-26 21:20 | 42.77522 | -83.57673 | 40192 ft | 439 kts | 280° |
| 2026-04-26 21:21 | 42.78444 | -83.65891 | 40178 ft | 439 kts | 280° |
| 2026-04-26 21:21 | 42.79359 | -83.74099 | 40180 ft | 438 kts | 280° |
| 2026-04-26 21:22 | 42.80267 | -83.82304 | 40177 ft | 438 kts | 280° |
| 2026-04-26 21:22 | 42.81169 | -83.90499 | 40174 ft | 437 kts | 280° |
| 2026-04-26 21:23 | 42.82510 | -84.02759 | 40175 ft | 436 kts | 280° |
| 2026-04-26 21:23 | 42.83399 | -84.10936 | 40176 ft | 436 kts | 280° |
| 2026-04-26 21:24 | 42.84280 | -84.19105 | 40174 ft | 435 kts | 280° |
| 2026-04-26 21:24 | 42.85153 | -84.27261 | 40176 ft | 435 kts | 280° |
| 2026-04-26 21:25 | 42.86014 | -84.35361 | 40167 ft | 434 kts | 279° |
| 2026-04-26 21:25 | 42.86874 | -84.43501 | 40167 ft | 434 kts | 279° |
| 2026-04-26 21:26 | 42.87728 | -84.51634 | 40166 ft | 433 kts | 279° |
| 2026-04-26 21:26 | 42.88347 | -84.59791 | 40157 ft | 435 kts | 268° |
| 2026-04-26 21:27 | 42.87491 | -84.67956 | 40164 ft | 436 kts | 264° |
| 2026-04-26 21:27 | 42.86567 | -84.76127 | 40171 ft | 436 kts | 264° |
| 2026-04-26 21:28 | 42.85714 | -84.84305 | 40165 ft | 436 kts | 265° |
| 2026-04-26 21:28 | 42.84868 | -84.92481 | 40164 ft | 435 kts | 265° |
| 2026-04-26 21:29 | 42.84005 | -85.00637 | 40151 ft | 435 kts | 264° |
| 2026-04-26 21:29 | 42.83133 | -85.08776 | 40144 ft | 432 kts | 264° |
| 2026-04-26 21:30 | 42.82700 | -85.12797 | 40036 ft | 427 kts | 264° |
| 2026-04-26 21:30 | 42.82270 | -85.16778 | 39741 ft | 425 kts | 264° |
| 2026-04-26 21:30 | 42.81840 | -85.20765 | 39386 ft | 425 kts | 264° |
| 2026-04-26 21:30 | 42.81408 | -85.24750 | 39051 ft | 425 kts | 264° |
| 2026-04-26 21:31 | 42.80977 | -85.28720 | 38720 ft | 423 kts | 264° |
| 2026-04-26 21:31 | 42.80545 | -85.32678 | 38227 ft | 424 kts | 264° |
| 2026-04-26 21:31 | 42.80110 | -85.36661 | 37622 ft | 426 kts | 264° |
| 2026-04-26 21:31 | 42.79671 | -85.40665 | 37001 ft | 429 kts | 264° |
| 2026-04-26 21:32 | 42.79227 | -85.44700 | 36394 ft | 432 kts | 264° |
| 2026-04-26 21:32 | 42.78779 | -85.48755 | 35781 ft | 434 kts | 264° |
| 2026-04-26 21:32 | 42.78222 | -85.52815 | 35147 ft | 438 kts | 260° |
| 2026-04-26 21:32 | 42.77496 | -85.56864 | 34557 ft | 441 kts | 258° |
| 2026-04-26 21:33 | 42.76719 | -85.60889 | 34132 ft | 439 kts | 258° |
| 2026-04-26 21:33 | 42.75959 | -85.64896 | 33773 ft | 435 kts | 258° |
| 2026-04-26 21:33 | 42.75233 | -85.68864 | 33438 ft | 431 kts | 258° |
| 2026-04-26 21:33 | 42.74523 | -85.72809 | 33077 ft | 428 kts | 258° |
| 2026-04-26 21:34 | 42.73818 | -85.76730 | 32695 ft | 426 kts | 258° |
| 2026-04-26 21:34 | 42.73114 | -85.80627 | 32316 ft | 424 kts | 258° |
| 2026-04-26 21:34 | 42.72410 | -85.84510 | 31949 ft | 422 kts | 258° |
| 2026-04-26 21:34 | 42.71708 | -85.88374 | 31604 ft | 420 kts | 258° |
| 2026-04-26 21:35 | 42.71008 | -85.92215 | 31269 ft | 417 kts | 258° |
| 2026-04-26 21:35 | 42.70312 | -85.96032 | 30942 ft | 415 kts | 258° |
| 2026-04-26 21:35 | 42.69616 | -85.99839 | 30604 ft | 414 kts | 258° |
| 2026-04-26 21:35 | 42.68932 | -86.03572 | 30270 ft | 412 kts | 258° |
| 2026-04-26 21:36 | 42.68243 | -86.07323 | 29836 ft | 404 kts | 258° |
| 2026-04-26 21:36 | 42.67564 | -86.11007 | 29504 ft | 402 kts | 257° |
| 2026-04-26 21:36 | 42.66881 | -86.14711 | 29162 ft | 406 kts | 257° |
| 2026-04-26 21:36 | 42.66194 | -86.18437 | 28811 ft | 406 kts | 257° |
| 2026-04-26 21:37 | 42.65508 | -86.22142 | 28464 ft | 403 kts | 257° |
| 2026-04-26 21:37 | 42.64825 | -86.25827 | 28129 ft | 401 kts | 257° |
| 2026-04-26 21:37 | 42.64145 | -86.29485 | 27792 ft | 398 kts | 257° |
| 2026-04-26 21:37 | 42.63467 | -86.33123 | 27455 ft | 396 kts | 257° |
| 2026-04-26 21:38 | 42.62792 | -86.36740 | 27136 ft | 395 kts | 257° |
| 2026-04-26 21:38 | 42.62118 | -86.40350 | 26809 ft | 393 kts | 257° |
| 2026-04-26 21:38 | 42.61446 | -86.43941 | 26484 ft | 392 kts | 257° |
| 2026-04-26 21:38 | 42.60773 | -86.47527 | 26163 ft | 391 kts | 257° |
| 2026-04-26 21:39 | 42.60103 | -86.51098 | 25832 ft | 390 kts | 257° |
| 2026-04-26 21:39 | 42.59433 | -86.54659 | 25512 ft | 389 kts | 257° |
| 2026-04-26 21:39 | 42.58763 | -86.58210 | 25184 ft | 388 kts | 257° |
| 2026-04-26 21:39 | 42.58096 | -86.61747 | 24862 ft | 387 kts | 256° |
| 2026-04-26 21:40 | 42.57429 | -86.65277 | 24541 ft | 385 kts | 256° |
| 2026-04-26 21:40 | 42.56762 | -86.68790 | 24224 ft | 384 kts | 256° |
| 2026-04-26 21:40 | 42.56093 | -86.72294 | 23900 ft | 383 kts | 255° |
| 2026-04-26 21:40 | 42.55287 | -86.75735 | 23545 ft | 383 kts | 251° |
| 2026-04-26 21:41 | 42.54366 | -86.79113 | 23187 ft | 381 kts | 250° |
| 2026-04-26 21:41 | 42.53419 | -86.82463 | 22847 ft | 379 kts | 250° |
| 2026-04-26 21:41 | 42.52484 | -86.85783 | 22512 ft | 376 kts | 250° |
| 2026-04-26 21:41 | 42.51566 | -86.89088 | 22197 ft | 374 kts | 250° |
| 2026-04-26 21:42 | 42.50661 | -86.92381 | 21887 ft | 372 kts | 250° |
| 2026-04-26 21:42 | 42.49767 | -86.95656 | 21577 ft | 370 kts | 250° |
| 2026-04-26 21:42 | 42.48877 | -86.98921 | 21266 ft | 368 kts | 250° |
| 2026-04-26 21:42 | 42.47992 | -87.02172 | 20958 ft | 367 kts | 250° |
| 2026-04-26 21:43 | 42.47109 | -87.05410 | 20655 ft | 366 kts | 250° |
| 2026-04-26 21:43 | 42.46225 | -87.08647 | 20316 ft | 366 kts | 249° |
| 2026-04-26 21:43 | 42.45340 | -87.11878 | 19981 ft | 366 kts | 249° |
| 2026-04-26 21:43 | 42.44457 | -87.15101 | 19665 ft | 364 kts | 249° |
| 2026-04-26 21:44 | 42.43581 | -87.18295 | 19459 ft | 357 kts | 249° |
| 2026-04-26 21:44 | 42.42732 | -87.21386 | 19382 ft | 343 kts | 249° |
| 2026-04-26 21:44 | 42.41918 | -87.24348 | 19308 ft | 330 kts | 249° |
| 2026-04-26 21:44 | 42.41135 | -87.27197 | 19232 ft | 317 kts | 249° |
| 2026-04-26 21:45 | 42.40376 | -87.29949 | 19100 ft | 306 kts | 249° |
| 2026-04-26 21:45 | 42.39642 | -87.32609 | 18908 ft | 299 kts | 249° |
| 2026-04-26 21:45 | 42.38928 | -87.35192 | 18591 ft | 296 kts | 248° |
| 2026-04-26 21:45 | 42.38208 | -87.37790 | 18092 ft | 296 kts | 248° |
| 2026-04-26 21:46 | 42.37473 | -87.40436 | 17869 ft | 303 kts | 248° |
| 2026-04-26 21:46 | 42.36733 | -87.43106 | 17868 ft | 304 kts | 248° |
| 2026-04-26 21:46 | 42.35990 | -87.45785 | 17863 ft | 305 kts | 248° |
| 2026-04-26 21:46 | 42.35246 | -87.48464 | 17857 ft | 305 kts | 248° |
| 2026-04-26 21:47 | 42.34498 | -87.51152 | 17853 ft | 305 kts | 248° |
| 2026-04-26 21:47 | 42.33500 | -87.53641 | 17805 ft | 302 kts | 230° |
| 2026-04-26 21:47 | 42.31965 | -87.55565 | 17810 ft | 302 kts | 218° |
| 2026-04-26 21:47 | 42.30300 | -87.57298 | 17802 ft | 302 kts | 218° |
| 2026-04-26 21:48 | 42.28638 | -87.59034 | 17797 ft | 303 kts | 218° |
| 2026-04-26 21:48 | 42.26961 | -87.60765 | 17795 ft | 303 kts | 218° |
| 2026-04-26 21:48 | 42.25296 | -87.62501 | 17781 ft | 300 kts | 218° |
| 2026-04-26 21:48 | 42.23678 | -87.64204 | 17404 ft | 290 kts | 218° |
| 2026-04-26 21:49 | 42.22107 | -87.65859 | 16681 ft | 284 kts | 218° |
| 2026-04-26 21:49 | 42.20627 | -87.67416 | 15879 ft | 282 kts | 218° |
| 2026-04-26 21:49 | 42.19087 | -87.69035 | 15090 ft | 280 kts | 217° |
| 2026-04-26 21:49 | 42.17561 | -87.70636 | 14357 ft | 276 kts | 217° |
| 2026-04-26 21:50 | 42.16056 | -87.72215 | 13625 ft | 272 kts | 217° |
| 2026-04-26 21:50 | 42.15071 | -87.73247 | 13080 ft | 270 kts | 217° |
| 2026-04-26 21:50 | 42.13099 | -87.75312 | 12015 ft | 267 kts | 216° |
| 2026-04-26 21:50 | 42.11632 | -87.76846 | 11254 ft | 266 kts | 216° |
| 2026-04-26 21:51 | 42.10229 | -87.78431 | 10512 ft | 265 kts | 226° |
| 2026-04-26 21:51 | 42.09307 | -87.80584 | 9733 ft | 269 kts | 250° |
| 2026-04-26 21:51 | 42.09106 | -87.83084 | 8931 ft | 272 kts | 267° |
| 2026-04-26 21:51 | 42.09128 | -87.85718 | 8650 ft | 285 kts | 267° |
| 2026-04-26 21:52 | 42.09151 | -87.88370 | 8597 ft | 280 kts | 267° |
| 2026-04-26 21:52 | 42.09170 | -87.90961 | 8506 ft | 274 kts | 266° |
| 2026-04-26 21:52 | 42.09181 | -87.93514 | 8360 ft | 272 kts | 266° |
| 2026-04-26 21:52 | 42.09184 | -87.96049 | 8194 ft | 270 kts | 266° |
| 2026-04-26 21:53 | 42.09183 | -87.98571 | 8023 ft | 269 kts | 266° |
| 2026-04-26 21:53 | 42.09180 | -88.01096 | 7800 ft | 270 kts | 266° |
| 2026-04-26 21:53 | 42.09178 | -88.03621 | 7673 ft | 270 kts | 266° |
| 2026-04-26 21:53 | 42.09174 | -88.06140 | 7512 ft | 269 kts | 266° |
| 2026-04-26 21:54 | 42.09166 | -88.08652 | 7339 ft | 268 kts | 266° |
| 2026-04-26 21:54 | 42.09158 | -88.11164 | 7158 ft | 269 kts | 266° |
| 2026-04-26 21:54 | 42.09150 | -88.13687 | 7046 ft | 272 kts | 266° |
| 2026-04-26 21:54 | 42.09140 | -88.16256 | 7065 ft | 275 kts | 266° |
| 2026-04-26 21:55 | 42.09135 | -88.18707 | 7101 ft | 253 kts | 266° |
| 2026-04-26 21:55 | 42.09127 | -88.21050 | 6886 ft | 249 kts | 266° |
| 2026-04-26 21:55 | 42.09117 | -88.23379 | 6546 ft | 248 kts | 265° |
| 2026-04-26 21:55 | 42.09106 | -88.25672 | 6419 ft | 244 kts | 266° |
| 2026-04-26 21:56 | 42.09093 | -88.27941 | 6317 ft | 239 kts | 264° |
| 2026-04-26 21:56 | 42.08992 | -88.30162 | 6259 ft | 238 kts | 262° |
| 2026-04-26 21:56 | 42.08856 | -88.32379 | 6258 ft | 236 kts | 257° |
| 2026-04-26 21:56 | 42.08164 | -88.34295 | 6293 ft | 235 kts | 222° |
| 2026-04-26 21:57 | 42.06724 | -88.35278 | 6238 ft | 236 kts | 190° |
| 2026-04-26 21:57 | 42.05131 | -88.35138 | 6162 ft | 229 kts | 164° |
| 2026-04-26 21:57 | 42.03695 | -88.34233 | 6098 ft | 233 kts | 152° |
| 2026-04-26 21:57 | 42.02268 | -88.33078 | 6050 ft | 243 kts | 150° |
| 2026-04-26 21:58 | 42.00825 | -88.31895 | 5996 ft | 243 kts | 150° |
| 2026-04-26 21:58 | 41.99595 | -88.30417 | 5964 ft | 241 kts | 125° |
| 2026-04-26 21:58 | 41.99031 | -88.28240 | 5728 ft | 255 kts | 103° |
| 2026-04-26 21:58 | 41.98851 | -88.25885 | 5413 ft | 252 kts | 97° |
| 2026-04-26 21:59 | 41.98802 | -88.23538 | 5058 ft | 250 kts | 94° |
| 2026-04-26 21:59 | 41.98808 | -88.21207 | 4741 ft | 250 kts | 93° |
| 2026-04-26 21:59 | 41.98819 | -88.18952 | 4390 ft | 232 kts | 93° |
| 2026-04-26 21:59 | 41.98823 | -88.16861 | 4106 ft | 217 kts | 94° |
| 2026-04-26 22:00 | 41.98820 | -88.14900 | 3835 ft | 202 kts | 95° |
| 2026-04-26 22:00 | 41.98824 | -88.13091 | 3576 ft | 184 kts | 94° |
| 2026-04-26 22:00 | 41.98828 | -88.11436 | 3325 ft | 172 kts | 94° |
| 2026-04-26 22:00 | 41.98825 | -88.09831 | 3163 ft | 175 kts | 94° |
| 2026-04-26 22:01 | 41.98819 | -88.08217 | 2892 ft | 165 kts | 93° |
| 2026-04-26 22:01 | 41.98824 | -88.06737 | 2701 ft | 155 kts | 94° |
| 2026-04-26 22:01 | 41.98824 | -88.05291 | 2498 ft | 151 kts | 92° |
| 2026-04-26 22:01 | 41.98841 | -88.03951 | 2306 ft | 139 kts | 94° |
| 2026-04-26 22:02 | 41.98830 | -88.02703 | 2086 ft | 127 kts | 94° |
| 2026-04-26 22:02 | 41.98828 | -88.01946 | 1999 ft | 121 kts | 94° |
| 2026-04-26 22:02 | 41.98825 | -88.00385 | 1798 ft | 128 kts | 91° |
| 2026-04-26 22:02 | 41.98828 | -87.99194 | 1597 ft | 124 kts | 91° |
| 2026-04-26 22:03 | 41.98826 | -87.98443 | 1481 ft | 118 kts | 88° |
| 2026-04-26 22:03 | 41.98828 | -87.97342 | 1314 ft | 117 kts | 88° |
| 2026-04-26 22:03 | 41.98839 | -87.96241 | 1157 ft | 118 kts | 89° |
| 2026-04-26 22:03 | 41.98819 | -87.94797 | 1028 ft | 124 kts | 88° |
| 2026-04-26 22:04 | 41.98832 | -87.93626 | 833 ft | 124 kts | 88° |
| 2026-04-26 22:04 | 41.98833 | -87.92535 | 695 ft | 107 kts | 89° |
| 2026-04-26 22:04 | 41.98829 | -87.91928 | 671 ft | 86 kts | 89° |
| 2026-04-26 22:04 | 41.98829 | -87.91454 | 672 ft | 60 kts | 89° |
| 2026-04-26 22:05 | 41.98808 | -87.91121 | 674 ft | 26 kts | 94° |
| 2026-04-26 22:05 | 41.98831 | -87.90820 | 675 ft | 32 kts | 88° |
| 2026-04-26 22:05 | 41.98793 | -87.90548 | 676 ft | 30 kts | 123° |
| 2026-04-26 22:05 | 41.98688 | -87.90308 | 674 ft | 30 kts | 105° |
| 2026-04-26 22:06 | 41.98673 | -87.90075 | 673 ft | 14 kts | 109° |
| 2026-04-26 22:06 | 41.98579 | -87.90040 | 673 ft | 17 kts | 180° |
| 2026-04-26 22:06 | 41.98428 | -87.90041 | 675 ft | 17 kts | 181° |
| 2026-04-26 22:06 | 41.98311 | -87.90053 | 674 ft | 17 kts | 210° |
| 2026-04-26 22:07 | 41.98289 | -87.90205 | 673 ft | 17 kts | 271° |
| 2026-04-26 22:07 | 41.98287 | -87.90367 | 673 ft | 17 kts | 269° |
| 2026-04-26 22:07 | 41.98289 | -87.90531 | 672 ft | 21 kts | 271° |
| 2026-04-26 22:07 | 41.98269 | -87.90801 | 673 ft | 33 kts | 251° |
| 2026-04-26 22:08 | 41.98215 | -87.90962 | 673 ft | 16 kts | 243° |
| 2026-04-26 22:08 | 41.98150 | -87.91088 | 673 ft | 16 kts | 225° |
| 2026-04-26 22:08 | 41.98060 | -87.91181 | 673 ft | 16 kts | 210° |
| 2026-04-26 22:08 | 41.97975 | -87.91235 | 673 ft | 7 kts | 205° |
| 2026-04-26 22:09 | 41.97921 | -87.91225 | 673 ft | 8 kts | 148° |
| 2026-04-26 22:09 | 41.97899 | -87.91154 | 673 ft | 8 kts | 102° |
| 2026-04-26 22:09 | 41.97895 | -87.91122 | 671 ft | 2 kts | 101° |
| 2026-04-26 22:09 | 41.97894 | -87.91122 | 671 ft | 0 kts | 101° |